Terminal Aerodrome Forecast
Issued by NWS Sterling, VA

Current Version | Previous Version | Text Only | Print | Product List | Glossary Off
Versions: 1 2 3 4 5 6 7 8 9 10 11 12 13 14

000
FTUS41 KLWX 240522
TAFMRB
TAF
KMRB 240522Z 2406/2506 21006KT P6SM -SHRA SCT025 OVC030
     FM240800 28007KT P6SM SCT025 OVC030 WS020/33030KT
     FM241000 29008KT P6SM SCT025 OVC040
     FM241300 29010G17KT P6SM FEW035 SCT150
     FM250100 29006KT P6SM FEW070 SCT250=

USA.gov is the U.S. government's official web portal to all federal, state and local government web resources and services.